Time;durP1;ratioP1;P1;durP2;ratioP2;P2;SDS_P1;SDS_P2;PMS_P1;PMS_P2;Temp;Humidity;BMP_temperature;BMP_pressure;BME280_temperature;BME280_humidity;BME280_pressure;Samples;Min_cycle;Max_cycle;Signal;HPM_P1;HPM_P2
2023/02/28 00:02:19;;;;;;;4.47;3.40;;;0.40;89.10;1.20;97531.00;;;;5090750;28;20421;-70
2023/02/28 00:05:10;;;;;;;4.37;3.70;;;0.30;89.30;1.00;97540.00;;;;5091454;28;20971;-69
2023/02/28 00:07:59;;;;;;;3.23;3.03;;;0.20;89.20;0.90;97525.00;;;;5080864;28;20466;-69
2023/02/28 00:10:47;;;;;;;3.63;3.17;;;0.20;90.30;0.90;97530.00;;;;5072135;28;20887;-69
2023/02/28 00:13:40;;;;;;;3.10;2.80;;;0.10;90.10;1.00;97527.00;;;;5087526;28;20437;-70
2023/02/28 00:16:29;;;;;;;3.50;3.17;;;0.10;90.40;0.90;97534.00;;;;5091432;28;20453;-70
2023/02/28 00:19:19;;;;;;;3.47;3.17;;;0.10;90.60;0.90;97531.00;;;;5090105;28;20840;-70
2023/02/28 00:22:08;;;;;;;3.57;3.10;;;0.00;91.10;0.90;97533.00;;;;5079522;28;20421;-70
2023/02/28 00:24:56;;;;;;;3.33;3.07;;;0.00;91.00;0.80;97534.00;;;;5090392;28;20525;-70
2023/02/28 00:27:45;;;;;;;4.00;3.70;;;0.00;91.10;0.40;97531.00;;;;5090844;28;20507;-70
2023/02/28 00:30:34;;;;;;;3.73;3.43;;;-0.10;91.20;0.30;97528.00;;;;5084008;28;20409;-70
2023/02/28 00:33:23;;;;;;;3.53;3.33;;;-0.20;91.50;0.20;97529.00;;;;5089554;28;20798;-69
2023/02/28 00:36:13;;;;;;;3.63;2.77;;;-0.30;91.80;-0.10;97529.00;;;;5074335;28;20485;-71
2023/02/28 00:39:02;;;;;;;2.97;2.73;;;-0.40;92.20;0.00;97530.00;;;;5089322;28;20563;-72
2023/02/28 00:41:51;;;;;;;3.10;2.70;;;-0.50;92.50;0.10;97524.00;;;;5090809;28;20425;-72
2023/02/28 00:44:39;;;;;;;3.93;2.97;;;-0.50;92.80;0.30;97534.00;;;;5090561;28;21362;-71
2023/02/28 00:47:28;;;;;;;3.73;3.03;;;-0.50;92.80;0.00;97528.00;;;;5093255;28;20539;-70
2023/02/28 00:50:18;;;;;;;4.40;3.37;;;-0.50;93.10;0.20;97533.00;;;;5092877;28;21106;-71
2023/02/28 00:53:08;;;;;;;3.73;3.17;;;-0.50;93.20;0.20;97532.00;;;;5080004;28;20426;-71
2023/02/28 00:55:56;;;;;;;3.10;2.80;;;-0.50;93.30;0.50;97540.00;;;;5075223;28;20430;-71
2023/02/28 00:58:45;;;;;;;4.37;3.40;;;-0.50;93.50;0.50;97537.00;;;;5089612;28;20972;-71
2023/02/28 01:01:34;;;;;;;3.10;2.90;;;-0.40;93.20;0.70;97534.00;;;;5080747;28;20418;-71
2023/02/28 01:04:23;;;;;;;3.63;3.30;;;-0.40;93.20;0.70;97538.00;;;;5070455;28;20439;-71
2023/02/28 01:07:12;;;;;;;3.17;2.87;;;-0.30;93.00;0.60;97535.00;;;;5070501;28;20478;-71
2023/02/28 01:10:02;;;;;;;3.30;3.10;;;-0.30;93.00;0.70;97541.00;;;;5071057;28;20426;-71
2023/02/28 01:12:50;;;;;;;3.30;3.10;;;-0.30;92.90;0.60;97532.00;;;;5077355;28;20429;-71
2023/02/28 01:15:42;;;;;;;4.57;4.13;;;-0.30;92.70;0.70;97528.00;;;;5090323;28;20414;-69
2023/02/28 01:18:31;;;;;;;4.23;3.23;;;-0.30;92.70;0.60;97531.00;;;;5089286;28;20441;-69
2023/02/28 01:21:22;;;;;;;3.67;3.37;;;-0.20;92.60;0.70;97525.00;;;;5078102;28;20423;-69
2023/02/28 01:24:10;;;;;;;4.17;3.40;;;-0.20;92.60;0.90;97529.00;;;;5085186;28;20450;-69
2023/02/28 01:27:01;;;;;;;7.20;4.00;;;-0.20;92.80;0.90;97533.00;;;;5089907;28;20622;-69
2023/02/28 01:29:49;;;;;;;3.40;3.10;;;-0.10;92.80;0.90;97527.00;;;;5089489;28;20967;-69
2023/02/28 01:32:38;;;;;;;3.40;3.10;;;-0.10;92.70;0.90;97531.00;;;;5099126;28;20453;-69
2023/02/28 01:35:27;;;;;;;3.53;3.27;;;-0.10;92.60;1.00;97534.00;;;;5097968;28;20432;-69
2023/02/28 01:38:15;;;;;;;4.13;3.83;;;0.00;92.60;1.00;97534.00;;;;5069577;28;20445;-69
2023/02/28 01:41:15;;;;;;;3.43;3.10;;;0.00;93.30;1.00;97519.00;;;;5077448;28;20420;-69
2023/02/28 01:44:28;;;;;;;3.60;3.30;;;0.00;93.60;1.00;97527.00;;;;5088689;28;21102;-69
2023/02/28 01:47:17;;;;;;;4.60;3.70;;;0.00;93.60;1.00;97518.00;;;;5088160;28;20469;-69
2023/02/28 01:50:12;;;;;;;3.47;3.17;;;0.10;93.40;1.00;97520.00;;;;5074867;28;20493;-69
2023/02/28 01:53:06;;;;;;;7.17;3.90;;;0.10;93.50;1.00;97527.00;;;;5070064;28;20466;-69
2023/02/28 01:55:56;;;;;;;4.03;3.50;;;0.10;93.70;1.00;97514.00;;;;5076693;28;20414;-69
2023/02/28 01:58:44;;;;;;;4.33;3.93;;;0.10;93.90;1.10;97527.00;;;;5096570;28;20425;-69
2023/02/28 02:01:34;;;;;;;5.03;3.97;;;0.10;94.00;1.10;97515.00;;;;5074188;28;20423;-69
2023/02/28 02:04:28;;;;;;;4.40;3.97;;;0.10;94.20;1.10;97526.00;;;;5068689;28;20992;-69
2023/02/28 02:07:17;;;;;;;4.47;3.80;;;0.20;94.00;1.10;97531.00;;;;5078176;28;20457;-69
2023/02/28 02:10:14;;;;;;;4.77;3.73;;;0.10;93.90;1.10;97504.00;;;;5087934;28;20934;-69
2023/02/28 02:13:33;;;;;;;4.53;3.53;;;0.10;94.00;1.20;97517.00;;;;5086549;28;20432;-69
2023/02/28 02:16:38;;;;;;;7.37;3.70;;;0.20;94.20;1.20;97527.00;;;;5069194;28;20422;-69
2023/02/28 02:20:20;;;;;;;3.77;3.47;;;0.20;94.30;1.10;97518.00;;;;5069090;28;20825;-69
2023/02/28 02:23:34;;;;;;;3.67;2.90;;;0.20;94.30;1.10;97524.00;;;;5067655;28;20483;-69
2023/02/28 02:26:51;;;;;;;3.90;3.50;;;0.20;94.30;1.20;97523.00;;;;5088391;28;20422;-69
2023/02/28 02:30:14;;;;;;;3.07;2.87;;;0.20;94.30;1.20;97525.00;;;;5089521;28;21012;-69
2023/02/28 02:33:49;;;;;;;4.50;4.10;;;0.20;94.40;1.20;97516.00;;;;5090428;28;20468;-69
2023/02/28 02:36:47;;;;;;;2.97;2.70;;;0.20;94.60;1.10;97516.00;;;;5056148;28;20512;-68
2023/02/28 02:39:48;;;;;;;3.33;3.13;;;0.20;94.40;1.20;97515.00;;;;5094263;28;20779;-69
2023/02/28 02:42:46;;;;;;;4.87;3.57;;;0.20;94.30;1.20;97514.00;;;;5093880;28;20417;-69
2023/02/28 02:45:39;;;;;;;4.07;3.67;;;0.20;94.40;1.30;97512.00;;;;5093489;28;20422;-69
2023/02/28 02:48:33;;;;;;;4.07;3.50;;;0.20;94.20;1.10;97511.00;;;;5103714;28;20475;-69
2023/02/28 02:51:24;;;;;;;8.43;4.07;;;0.30;94.70;1.00;97516.00;;;;5088245;28;20460;-69
2023/02/28 02:54:18;;;;;;;5.80;3.80;;;0.20;95.00;0.80;97511.00;;;;5080157;28;20442;-69
2023/02/28 02:57:13;;;;;;;4.23;3.90;;;0.10;95.20;0.70;97520.00;;;;5093048;28;20421;-69
2023/02/28 03:00:08;;;;;;;4.13;3.83;;;0.10;95.30;0.90;97516.00;;;;5093657;28;20454;-69
2023/02/28 03:02:57;;;;;;;5.00;4.37;;;0.10;95.30;1.00;97518.00;;;;5092800;28;20511;-69
2023/02/28 03:05:48;;;;;;;3.17;2.97;;;0.10;95.30;0.90;97517.00;;;;5091635;28;20421;-69
2023/02/28 03:08:39;;;;;;;4.13;3.83;;;0.10;95.60;0.80;97526.00;;;;5087816;28;20493;-69
2023/02/28 03:11:30;;;;;;;4.20;3.80;;;0.00;95.50;0.60;97515.00;;;;5072648;28;20423;-69
2023/02/28 03:14:47;;;;;;;4.57;4.17;;;0.00;95.50;0.70;97505.00;;;;5074140;28;20810;-69
2023/02/28 03:17:59;;;;;;;4.23;3.90;;;-0.10;95.90;0.70;97522.00;;;;5083575;28;20487;-69
2023/02/28 03:20:59;;;;;;;5.30;3.90;;;-0.10;95.70;1.00;97519.00;;;;5092463;28;20825;-69
2023/02/28 03:23:57;;;;;;;5.83;4.00;;;-0.10;95.70;1.00;97527.00;;;;5093014;28;20495;-69
2023/02/28 03:26:55;;;;;;;4.37;3.67;;;0.00;96.10;0.90;97514.00;;;;5081325;28;20849;-69
2023/02/28 03:29:51;;;;;;;9.37;4.90;;;0.00;96.40;0.90;97518.00;;;;5092936;28;20469;-69
2023/02/28 03:32:47;;;;;;;11.20;4.30;;;0.00;96.40;0.90;97533.00;;;;5091054;28;20826;-69
2023/02/28 03:35:41;;;;;;;6.07;4.30;;;0.00;96.40;1.00;97525.00;;;;5088134;28;20805;-67
2023/02/28 03:38:36;;;;;;;5.10;4.60;;;0.00;96.50;1.00;97525.00;;;;5071576;28;20415;-69
2023/02/28 03:41:31;;;;;;;4.67;3.87;;;0.10;96.70;1.10;97528.00;;;;5072143;28;20437;-69
2023/02/28 03:44:26;;;;;;;4.57;4.10;;;0.10;96.80;1.00;97522.00;;;;5078988;28;20502;-69
2023/02/28 03:47:19;;;;;;;4.10;3.77;;;0.10;96.60;1.00;97522.00;;;;5090924;28;20475;-69
2023/02/28 03:50:14;;;;;;;5.10;4.07;;;0.20;96.70;1.00;97532.00;;;;5104478;28;20424;-69
2023/02/28 03:53:07;;;;;;;5.40;4.90;;;0.10;96.70;1.10;97526.00;;;;5072619;28;20415;-69
2023/02/28 03:56:02;;;;;;;5.20;4.77;;;0.10;96.70;1.20;97531.00;;;;5079450;28;20429;-69
2023/02/28 03:58:59;;;;;;;4.23;3.83;;;0.20;96.70;1.10;97536.00;;;;5073522;28;20796;-69
2023/02/28 04:01:51;;;;;;;6.47;4.07;;;0.10;96.50;1.10;97533.00;;;;5080144;28;20511;-69
2023/02/28 04:04:48;;;;;;;4.40;4.00;;;0.10;96.80;1.20;97530.00;;;;5096712;28;20441;-69
2023/02/28 04:07:36;;;;;;;4.70;3.57;;;0.20;97.00;1.20;97530.00;;;;5080755;28;20432;-69
2023/02/28 04:10:25;;;;;;;4.53;4.13;;;0.20;96.80;1.20;97536.00;;;;5091697;28;20426;-69
2023/02/28 04:13:14;;;;;;;3.80;3.23;;;0.20;97.00;1.10;97535.00;;;;5091418;28;20429;-69
2023/02/28 04:16:11;;;;;;;4.73;3.73;;;0.20;97.20;1.00;97542.00;;;;5090245;28;20421;-69
2023/02/28 04:19:09;;;;;;;4.47;4.17;;;0.20;97.20;1.10;97542.00;;;;5090646;28;21285;-69
2023/02/28 04:21:58;;;;;;;6.77;4.50;;;0.10;96.90;1.20;97545.00;;;;5092144;28;20429;-69
2023/02/28 04:24:47;;;;;;;5.70;4.97;;;0.20;96.80;1.20;97552.00;;;;5077712;28;20469;-69
2023/02/28 04:27:36;;;;;;;4.20;3.90;;;0.20;96.80;1.20;97546.00;;;;5088317;28;20440;-69
2023/02/28 04:30:24;;;;;;;6.40;3.80;;;0.20;97.20;1.20;97546.00;;;;5070443;28;20430;-69
2023/02/28 04:33:13;;;;;;;7.47;4.73;;;0.20;97.20;1.20;97551.00;;;;5079993;28;20980;-69
2023/02/28 04:36:07;;;;;;;8.53;5.27;;;0.20;97.30;1.20;97555.00;;;;5097129;28;20841;-69
2023/02/28 04:38:56;;;;;;;6.97;5.77;;;0.20;96.90;1.10;97549.00;;;;5071441;28;20484;-69
2023/02/28 04:41:45;;;;;;;4.97;4.47;;;0.20;97.10;1.00;97556.00;;;;5070994;28;20976;-67
2023/02/28 04:44:33;;;;;;;4.10;3.80;;;0.20;97.70;1.10;97557.00;;;;5078819;28;20508;-70
2023/02/28 04:47:22;;;;;;;4.47;4.07;;;0.20;98.10;1.10;97568.00;;;;5092042;28;20944;-69
2023/02/28 04:50:11;;;;;;;4.70;4.30;;;0.20;98.00;1.10;97556.00;;;;5088787;28;21342;-69
2023/02/28 04:53:01;;;;;;;10.43;5.10;;;0.20;97.80;0.90;97550.00;;;;5090511;28;20417;-69
2023/02/28 04:55:50;;;;;;;6.43;5.33;;;0.20;98.10;0.90;97555.00;;;;5089802;28;20420;-69
2023/02/28 04:58:39;;;;;;;5.27;4.77;;;0.10;98.10;0.80;97548.00;;;;5090617;28;20425;-69
2023/02/28 05:01:30;;;;;;;4.97;4.47;;;0.10;98.10;0.70;97571.00;;;;5090565;28;20433;-69
2023/02/28 05:04:19;;;;;;;5.30;3.80;;;0.00;98.10;0.60;97559.00;;;;5080337;28;20461;-69
2023/02/28 05:07:08;;;;;;;5.13;4.37;;;0.00;98.10;0.60;97551.00;;;;5091312;28;20428;-69
2023/02/28 05:09:58;;;;;;;7.33;4.10;;;0.00;98.50;0.70;97556.00;;;;5089337;28;20472;-69
2023/02/28 05:12:47;;;;;;;4.93;4.43;;;-0.10;98.60;0.90;97560.00;;;;5075910;28;20972;-70
2023/02/28 05:15:36;;;;;;;5.27;4.73;;;-0.10;98.30;0.90;97553.00;;;;5084547;28;20477;-69
2023/02/28 05:18:25;;;;;;;5.20;4.40;;;-0.10;98.00;1.00;97561.00;;;;5069612;28;20813;-69
2023/02/28 05:21:28;;;;;;;4.70;4.30;;;-0.10;97.80;1.00;97557.00;;;;5070041;28;20988;-69
2023/02/28 05:24:22;;;;;;;5.47;4.70;;;-0.10;98.00;0.90;97555.00;;;;5087042;28;20833;-69
2023/02/28 05:27:12;;;;;;;6.23;4.17;;;0.00;98.40;1.00;97554.00;;;;5089535;28;20418;-69
2023/02/28 05:30:03;;;;;;;4.63;4.20;;;0.00;98.70;1.10;97552.00;;;;5090457;28;20469;-69
2023/02/28 05:32:52;;;;;;;4.20;3.80;;;0.00;98.90;1.10;97561.00;;;;5075975;28;20436;-69
2023/02/28 05:35:42;;;;;;;6.63;4.27;;;0.10;98.80;1.10;97551.00;;;;5086721;28;20512;-68
2023/02/28 05:38:31;;;;;;;4.37;3.93;;;0.10;99.00;1.10;97557.00;;;;5069162;28;20835;-68
2023/02/28 05:41:21;;;;;;;6.03;4.70;;;0.10;99.10;1.20;97564.00;;;;5072495;28;20435;-68
2023/02/28 05:44:12;;;;;;;7.07;4.53;;;0.10;99.00;1.20;97564.00;;;;5081678;28;20458;-69
2023/02/28 05:47:00;;;;;;;5.30;4.70;;;0.10;98.90;1.20;97561.00;;;;5078386;28;20433;-69
2023/02/28 05:49:49;;;;;;;4.87;4.13;;;0.10;98.80;1.00;97569.00;;;;5091139;28;20991;-69
2023/02/28 05:52:38;;;;;;;5.93;4.03;;;0.10;99.00;1.00;97570.00;;;;5075552;28;20422;-69
2023/02/28 05:55:27;;;;;;;7.47;4.50;;;0.10;98.80;1.20;97583.00;;;;5084298;28;20454;-69
2023/02/28 05:58:16;;;;;;;10.47;5.10;;;0.00;99.00;1.10;97571.00;;;;5081938;28;20425;-68
2023/02/28 06:01:36;;;;;;;5.57;5.07;;;0.20;99.20;1.00;97572.00;;;;5083059;28;20426;-69
2023/02/28 06:04:24;;;;;;;5.90;5.03;;;0.20;99.30;0.70;97570.00;;;;5084117;28;20457;-69
2023/02/28 06:07:19;;;;;;;5.63;4.67;;;0.10;99.60;0.60;97575.00;;;;5074387;28;20430;-69
2023/02/28 06:10:09;;;;;;;4.50;3.73;;;0.00;99.60;0.50;97584.00;;;;5079708;28;20553;-69
2023/02/28 06:13:02;;;;;;;5.03;4.50;;;0.00;99.60;0.70;97581.00;;;;5074035;28;20941;-69
2023/02/28 06:15:50;;;;;;;4.47;4.07;;;-0.10;99.70;0.80;97579.00;;;;5068940;28;20457;-69
2023/02/28 06:18:40;;;;;;;6.80;5.10;;;-0.10;99.70;0.90;97591.00;;;;5077054;28;20453;-69
2023/02/28 06:21:31;;;;;;;5.37;3.40;;;-0.10;99.40;0.90;97591.00;;;;5083324;28;20454;-69
2023/02/28 06:24:20;;;;;;;7.30;4.37;;;0.00;99.40;0.90;97586.00;;;;5078634;28;20968;-69
2023/02/28 06:27:09;;;;;;;6.37;4.43;;;0.00;99.50;0.70;97605.00;;;;5089618;28;20963;-70
2023/02/28 06:29:58;;;;;;;5.73;5.13;;;-0.10;99.80;0.70;97599.00;;;;5087986;28;20457;-70
2023/02/28 06:32:49;;;;;;;10.43;8.93;;;0.00;99.90;0.80;97600.00;;;;5082722;28;20461;-69
2023/02/28 06:35:39;;;;;;;6.27;5.67;;;0.00;99.90;0.80;97608.00;;;;5082340;28;20429;-69
2023/02/28 06:38:28;;;;;;;6.27;5.77;;;-0.10;99.90;1.20;97615.00;;;;5068456;28;20433;-69
2023/02/28 06:41:16;;;;;;;5.00;4.50;;;0.10;99.90;1.20;97623.00;;;;5078401;28;20421;-69
2023/02/28 06:44:06;;;;;;;6.20;4.67;;;0.10;99.90;1.20;97620.00;;;;5090378;28;20872;-69
2023/02/28 06:46:54;;;;;;;4.83;4.37;;;0.00;99.60;1.00;97621.00;;;;5096244;28;20967;-69
2023/02/28 06:49:44;;;;;;;6.23;4.70;;;0.20;98.90;0.80;97617.00;;;;5096024;28;21006;-70
2023/02/28 06:52:37;;;;;;;7.37;4.63;;;0.20;98.20;1.20;97625.00;;;;5083125;28;20429;-70
2023/02/28 06:55:25;;;;;;;6.17;4.63;;;0.20;98.60;1.30;97615.00;;;;5095897;28;20966;-70
2023/02/28 06:58:18;;;;;;;5.80;5.03;;;0.30;98.50;1.60;97627.00;;;;5097555;28;20793;-70
2023/02/28 07:01:07;;;;;;;6.10;5.50;;;0.40;98.00;1.50;97637.00;;;;5086840;28;20970;-70
2023/02/28 07:03:56;;;;;;;13.20;5.67;;;0.40;97.60;1.50;97636.00;;;;5084312;28;20452;-70
2023/02/28 07:06:45;;;;;;;8.53;6.03;;;0.50;97.40;1.60;97628.00;;;;5084320;28;21199;-71
2023/02/28 07:09:35;;;;;;;6.90;5.03;;;0.50;97.50;1.60;97636.00;;;;5081610;28;20417;-70
2023/02/28 07:12:24;;;;;;;8.87;6.80;;;0.60;97.20;1.80;97643.00;;;;5083736;28;20949;-70
2023/02/28 07:15:12;;;;;;;7.67;6.00;;;0.60;97.40;1.80;97630.00;;;;5087865;28;20449;-70
2023/02/28 07:18:01;;;;;;;8.93;6.00;;;0.70;97.30;2.00;97642.00;;;;5087344;28;21013;-69
2023/02/28 07:20:50;;;;;;;9.00;6.17;;;0.70;97.20;2.00;97641.00;;;;5080551;28;20467;-69
2023/02/28 07:23:40;;;;;;;12.93;5.97;;;0.80;97.10;1.70;97640.00;;;;5084060;28;20472;-70
2023/02/28 07:26:30;;;;;;;9.47;5.70;;;0.80;96.40;1.60;97636.00;;;;5086143;28;20478;-69
2023/02/28 07:29:19;;;;;;;7.87;5.90;;;0.80;96.10;1.80;97644.00;;;;5082608;28;20424;-69
2023/02/28 07:32:08;;;;;;;10.63;6.50;;;0.80;96.10;1.90;97645.00;;;;5082915;28;20441;-69
2023/02/28 07:34:57;;;;;;;6.80;6.20;;;0.80;96.30;1.90;97642.00;;;;5086879;28;20988;-69
2023/02/28 07:37:46;;;;;;;6.67;5.33;;;0.80;96.40;1.40;97643.00;;;;5086117;28;20409;-69
2023/02/28 07:40:37;;;;;;;9.70;6.27;;;0.80;96.00;1.00;97647.00;;;;5086938;28;20437;-68
2023/02/28 07:43:27;;;;;;;9.83;6.73;;;0.60;96.00;1.10;97648.00;;;;5090329;28;20421;-69
2023/02/28 07:46:20;;;;;;;8.33;5.57;;;0.50;96.10;1.40;97661.00;;;;5072579;28;20434;-68
2023/02/28 07:49:08;;;;;;;6.33;5.23;;;-0.30;96.00;1.30;97659.00;;;;5086854;28;20440;-68
2023/02/28 07:51:57;;;;;;;7.77;5.97;;;0.60;96.50;1.20;97652.00;;;;5072840;28;20476;-69
2023/02/28 07:54:46;;;;;;;9.00;6.00;;;0.60;96.60;1.30;97655.00;;;;5079666;28;20495;-71
2023/02/28 07:57:35;;;;;;;11.27;6.93;;;0.60;96.50;1.60;97651.00;;;;5085468;28;20434;-67
2023/02/28 08:00:26;;;;;;;6.40;5.57;;;0.60;96.60;1.60;97653.00;;;;5104146;28;20433;-67
2023/02/28 08:03:18;;;;;;;11.47;7.40;;;0.70;96.60;1.80;97662.00;;;;5097127;28;20429;-68
2023/02/28 08:06:16;;;;;;;7.77;6.00;;;0.80;96.70;2.20;97659.00;;;;5089028;28;20479;-68
2023/02/28 08:09:04;;;;;;;6.63;5.93;;;0.90;96.70;2.00;97658.00;;;;5086587;28;20479;-68
2023/02/28 08:11:53;;;;;;;11.53;7.63;;;1.00;96.40;2.00;97666.00;;;;5085136;28;20468;-67
2023/02/28 08:14:42;;;;;;;8.17;6.23;;;1.00;96.40;2.20;97665.00;;;;5083702;28;21016;-68
2023/02/28 08:17:32;;;;;;;9.27;6.53;;;1.10;96.70;1.80;97659.00;;;;5091543;28;20410;-68
2023/02/28 08:20:23;;;;;;;8.53;6.33;;;1.30;95.90;1.60;97666.00;;;;5091566;28;20452;-73
2023/02/28 08:23:11;;;;;;;10.70;7.33;;;1.10;95.80;2.30;97671.00;;;;5099701;28;20935;-70
2023/02/28 08:26:00;;;;;;;7.77;6.27;;;1.00;96.30;2.70;97665.00;;;;5088832;28;20487;-70
2023/02/28 08:28:49;;;;;;;10.13;7.43;;;1.30;96.50;2.50;97670.00;;;;5092878;28;20422;-67
2023/02/28 08:31:38;;;;;;;9.20;6.47;;;1.30;96.40;2.40;97674.00;;;;5076868;28;20465;-67
2023/02/28 08:34:28;;;;;;;10.33;7.33;;;1.40;95.90;1.80;97672.00;;;;5085872;28;20498;-70
2023/02/28 08:37:17;;;;;;;8.57;6.73;;;1.50;95.20;2.10;97679.00;;;;5079889;28;20435;-69
2023/02/28 08:40:07;;;;;;;9.20;7.20;;;1.30;95.30;2.50;97674.00;;;;5078305;28;20418;-69
2023/02/28 08:42:56;;;;;;;10.50;7.17;;;1.40;95.60;2.90;97678.00;;;;5087048;28;20693;-69
2023/02/28 08:45:45;;;;;;;9.10;6.67;;;1.40;95.80;3.00;97675.00;;;;5085060;28;20808;-69
2023/02/28 08:48:37;;;;;;;10.03;8.63;;;1.70;95.90;3.20;97680.00;;;;5084336;28;20418;-68
2023/02/28 08:51:28;;;;;;;10.00;7.20;;;2.40;96.30;3.40;97688.00;;;;5090111;28;20480;-69
2023/02/28 08:54:19;;;;;;;17.57;8.63;;;1.90;96.10;3.50;97692.00;;;;5079263;28;20464;-69
2023/02/28 08:57:07;;;;;;;19.83;9.70;;;2.10;96.00;3.50;97689.00;;;;5083772;28;20587;-68
2023/02/28 08:59:57;;;;;;;24.20;12.87;;;2.20;95.70;3.50;97681.00;;;;5098027;28;20425;-68
2023/02/28 09:02:45;;;;;;;19.80;11.13;;;2.20;95.60;3.60;97687.00;;;;5092698;28;20433;-68
2023/02/28 09:05:34;;;;;;;14.70;9.50;;;2.40;95.50;3.50;97683.00;;;;5074016;28;20462;-68
2023/02/28 09:08:25;;;;;;;17.20;7.17;;;2.30;95.20;3.60;97687.00;;;;5070429;28;20920;-69
2023/02/28 09:11:14;;;;;;;7.30;6.50;;;2.40;95.00;3.50;97690.00;;;;5071383;28;20470;-68
2023/02/28 09:14:04;;;;;;;11.90;7.87;;;2.40;94.80;3.50;97689.00;;;;5090505;28;20442;-69
2023/02/28 09:16:52;;;;;;;10.53;7.43;;;2.50;94.80;3.70;97690.00;;;;5089382;28;20450;-68
2023/02/28 09:19:42;;;;;;;8.47;7.57;;;2.40;95.00;3.60;97688.00;;;;5096909;28;20426;-68
2023/02/28 09:22:31;;;;;;;9.07;8.17;;;2.50;94.60;3.40;97689.00;;;;5094479;28;20425;-68
2023/02/28 09:25:21;;;;;;;13.50;7.43;;;2.40;94.60;3.70;97695.00;;;;5093715;28;20437;-68
2023/02/28 09:28:11;;;;;;;10.13;7.63;;;2.40;94.60;3.80;97686.00;;;;5080156;28;20475;-68
2023/02/28 09:30:59;;;;;;;11.37;7.43;;;2.40;94.60;3.90;97694.00;;;;5081080;28;21070;-68
2023/02/28 09:33:48;;;;;;;9.93;5.70;;;2.50;94.40;3.10;97689.00;;;;5085914;28;20437;-70
2023/02/28 09:36:38;;;;;;;10.77;7.30;;;2.50;93.80;3.00;97689.00;;;;5080930;28;20552;-68
2023/02/28 09:39:32;;;;;;;22.60;12.10;;;2.50;93.80;3.70;97699.00;;;;5090102;28;20434;-68
2023/02/28 09:42:34;;;;;;;11.23;7.73;;;2.40;94.00;3.60;97691.00;;;;5089945;28;20425;-68
2023/02/28 09:45:28;;;;;;;9.93;7.53;;;2.60;94.10;3.90;97694.00;;;;5082776;28;20569;-68
2023/02/28 09:48:22;;;;;;;8.63;7.53;;;2.60;94.00;4.10;97693.00;;;;5089492;28;21174;-68
2023/02/28 09:51:29;;;;;;;10.87;7.07;;;2.70;93.70;4.40;97704.00;;;;5089253;28;21004;-69
2023/02/28 09:54:22;;;;;;;16.03;9.60;;;2.70;93.60;4.50;97699.00;;;;5089814;28;20441;-68
2023/02/28 09:57:20;;;;;;;13.40;9.13;;;3.00;93.60;4.40;97695.00;;;;5090538;28;20799;-68
2023/02/28 10:00:18;;;;;;;9.00;7.23;;;3.00;93.30;4.40;97700.00;;;;5088959;28;20436;-68
2023/02/28 10:03:27;;;;;;;30.03;14.80;;;3.10;93.00;4.60;97694.00;;;;5087252;28;20442;-68
2023/02/28 10:06:20;;;;;;;19.40;11.57;;;3.10;93.00;4.90;97686.00;;;;5086115;28;20428;-68
2023/02/28 10:09:15;;;;;;;9.30;8.50;;;3.20;93.20;4.90;97703.00;;;;5089915;28;20430;-68
2023/02/28 10:12:06;;;;;;;9.30;7.37;;;3.40;92.90;4.60;97699.00;;;;5088991;28;20477;-68
2023/02/28 10:14:56;;;;;;;11.53;7.03;;;3.50;92.30;4.60;97689.00;;;;5089218;28;20456;-69
2023/02/28 10:17:50;;;;;;;9.10;6.77;;;3.50;91.80;4.70;97696.00;;;;5088989;28;20448;-69
2023/02/28 10:20:44;;;;;;;7.77;6.83;;;3.30;91.70;5.40;97696.00;;;;5088106;28;20808;-69
2023/02/28 10:23:36;;;;;;;10.60;7.80;;;3.60;92.10;5.30;97695.00;;;;5087148;28;20542;-69
2023/02/28 10:26:29;;;;;;;17.43;10.40;;;3.80;91.90;5.50;97686.00;;;;5083635;28;20471;-69
2023/02/28 10:29:18;;;;;;;16.63;9.07;;;3.90;91.90;5.20;97686.00;;;;5090498;28;20517;-69
2023/02/28 10:32:08;;;;;;;13.50;9.83;;;4.00;91.70;5.30;97688.00;;;;5085714;28;20500;-70
2023/02/28 10:35:01;;;;;;;13.77;11.03;;;4.00;91.00;5.60;97686.00;;;;5082294;28;20452;-69
2023/02/28 10:37:52;;;;;;;11.63;9.73;;;4.20;91.00;5.80;97683.00;;;;5084911;28;20437;-69
2023/02/28 10:40:41;;;;;;;10.47;8.50;;;4.10;90.70;5.70;97678.00;;;;5072993;28;20972;-69
2023/02/28 10:43:30;;;;;;;10.13;7.90;;;4.40;90.30;5.10;97679.00;;;;5082512;28;20472;-69
2023/02/28 10:46:25;;;;;;;10.40;7.83;;;4.20;88.90;5.30;97678.00;;;;5084090;28;20426;-69
2023/02/28 10:49:19;;;;;;;18.73;7.93;;;4.20;89.00;5.50;97677.00;;;;5092178;28;20194;-68
2023/02/28 10:52:11;;;;;;;8.53;6.47;;;4.30;88.40;5.40;97677.00;;;;5081512;28;20226;-68
2023/02/28 10:55:19;;;;;;;11.30;7.63;;;3.90;87.90;5.70;97675.00;;;;5084163;28;20495;-69
2023/02/28 10:58:24;;;;;;;11.63;8.23;;;4.20;87.40;5.50;97666.00;;;;5082259;28;20686;-69
2023/02/28 11:01:17;;;;;;;9.93;7.47;;;4.40;87.00;6.00;97672.00;;;;5092086;28;20960;-69
2023/02/28 11:04:20;;;;;;;9.63;8.23;;;4.30;87.90;6.00;97668.00;;;;5090749;28;20218;-68
2023/02/28 11:07:21;;;;;;;10.37;7.93;;;4.30;87.60;6.10;97664.00;;;;5079933;28;20682;-68
2023/02/28 11:10:21;;;;;;;10.10;7.37;;;4.50;87.90;4.80;97651.00;;;;5078964;28;20658;-71
2023/02/28 11:13:22;;;;;;;9.70;8.37;;;4.30;86.70;5.20;97651.00;;;;5094662;28;20228;-70
2023/02/28 11:16:13;;;;;;;12.80;8.60;;;4.40;88.00;5.60;97658.00;;;;5088473;28;20200;-69
2023/02/28 11:19:05;;;;;;;10.30;8.77;;;4.20;88.70;5.80;97655.00;;;;5090946;28;20207;-68
2023/02/28 11:21:59;;;;;;;10.40;8.40;;;4.30;88.20;6.10;97662.00;;;;5097835;28;20195;-68
2023/02/28 11:24:52;;;;;;;9.33;7.70;;;4.40;89.30;6.30;97648.00;;;;5087427;28;20657;-68
2023/02/28 11:27:49;;;;;;;10.33;7.13;;;4.60;89.40;6.40;97640.00;;;;5093791;28;20198;-68
2023/02/28 11:30:41;;;;;;;8.83;8.03;;;4.90;89.00;5.00;97632.00;;;;5082595;28;20204;-69
2023/02/28 11:33:31;;;;;;;9.70;8.03;;;4.70;86.20;6.00;97639.00;;;;5078843;28;20227;-68
2023/02/28 11:36:24;;;;;;;11.03;8.47;;;4.70;87.20;6.60;97629.00;;;;5081043;28;20203;-68
2023/02/28 11:39:14;;;;;;;12.07;8.43;;;4.80;87.90;7.30;97620.00;;;;5092171;28;20216;-68
2023/02/28 11:42:43;;;;;;;11.60;8.53;;;5.10;88.60;7.50;97615.00;;;;5081687;28;20211;-68
2023/02/28 11:45:58;;;;;;;15.80;8.40;;;5.50;86.90;7.50;97612.00;;;;5067544;28;20272;-69
2023/02/28 11:48:59;;;;;;;14.43;8.03;;;5.90;86.20;8.00;97611.00;;;;5089030;28;20272;-69
2023/02/28 11:51:53;;;;;;;9.33;8.30;;;6.10;85.80;8.00;97610.00;;;;5086843;28;20190;-68
2023/02/28 11:55:02;;;;;;;11.40;8.70;;;6.30;85.70;8.00;97607.00;;;;5077520;28;20554;-69
2023/02/28 11:58:31;;;;;;;10.30;8.13;;;6.50;88.10;6.70;97593.00;;;;5083346;28;20211;-70
2023/02/28 12:01:55;;;;;;;10.93;8.87;;;6.50;81.30;6.70;97597.00;;;;5082064;28;20207;-69
2023/02/28 12:05:00;;;;;;;11.43;7.53;;;6.40;82.40;6.80;97602.00;;;;5087429;28;20713;-69
2023/02/28 12:08:01;;;;;;;11.57;9.00;;;6.20;82.90;7.50;97598.00;;;;5081034;28;20816;-68
2023/02/28 12:11:04;;;;;;;14.10;9.50;;;6.10;83.00;7.70;97607.00;;;;5086687;28;20258;-68
2023/02/28 12:14:15;;;;;;;13.83;9.90;;;6.20;82.60;8.20;97605.00;;;;5081019;28;20219;-68
2023/02/28 12:17:20;;;;;;;13.67;9.13;;;6.40;83.20;8.10;97596.00;;;;5085939;28;20342;-68
2023/02/28 12:20:22;;;;;;;14.37;9.87;;;6.60;82.20;7.90;97592.00;;;;5076757;28;20212;-69
2023/02/28 12:23:44;;;;;;;14.80;10.10;;;6.60;80.30;8.40;97603.00;;;;5074714;28;20214;-68
2023/02/28 12:26:38;;;;;;;11.37;8.30;;;6.70;81.20;7.60;97597.00;;;;5077286;28;20206;-68
2023/02/28 12:29:31;;;;;;;11.60;8.77;;;6.80;80.00;8.40;97592.00;;;;5090878;28;20258;-69
2023/02/28 12:32:27;;;;;;;12.40;9.00;;;6.80;80.40;8.60;97592.00;;;;5105855;28;20238;-69
2023/02/28 12:35:23;;;;;;;9.97;7.20;;;7.10;79.90;8.70;97575.00;;;;5083291;28;20336;-66
2023/02/28 12:38:19;;;;;;;10.97;9.27;;;7.20;79.80;9.40;97574.00;;;;5087460;28;20215;-66
2023/02/28 12:41:15;;;;;;;13.17;9.13;;;7.40;79.30;8.70;97574.00;;;;5086171;28;20207;-68
2023/02/28 12:44:12;;;;;;;10.27;8.37;;;7.60;78.90;8.90;97581.00;;;;5097697;28;20773;-68
2023/02/28 12:47:09;;;;;;;11.60;7.37;;;7.70;77.10;8.30;97593.00;;;;5073083;28;20207;-69
2023/02/28 12:50:04;;;;;;;12.93;8.87;;;7.60;77.20;7.70;97578.00;;;;5082903;28;20204;-69
2023/02/28 12:53:01;;;;;;;11.87;8.03;;;7.40;76.10;6.80;97575.00;;;;5090423;28;20219;-69
2023/02/28 12:55:59;;;;;;;9.00;8.07;;;6.90;77.60;7.10;97579.00;;;;5089140;28;20250;-69
2023/02/28 12:58:52;;;;;;;9.97;7.80;;;6.50;79.60;7.70;97585.00;;;;5084854;28;20203;-69
2023/02/28 13:02:03;;;;;;;11.60;8.40;;;6.40;79.70;6.70;97574.00;;;;5082832;28;20199;-69
2023/02/28 13:05:46;;;;;;;16.33;8.47;;;6.30;78.90;7.20;97558.00;;;;5090162;28;20207;-70